sensor_id;sensor_type;location;lat;lon;timestamp;temperature;humidity
16313;DHT22;8265;52.622;13.296;2023-04-19T00:01:36;5.90;68.10
16313;DHT22;8265;52.622;13.296;2023-04-19T00:06:57;5.80;67.60
16313;DHT22;8265;52.622;13.296;2023-04-19T00:12:18;5.90;65.40
16313;DHT22;8265;52.622;13.296;2023-04-19T00:17:39;5.90;66.10
16313;DHT22;8265;52.622;13.296;2023-04-19T00:23:00;5.90;63.50
16313;DHT22;8265;52.622;13.296;2023-04-19T00:28:21;5.80;64.20
16313;DHT22;8265;52.622;13.296;2023-04-19T00:33:42;5.70;64.20
16313;DHT22;8265;52.622;13.296;2023-04-19T00:39:03;5.70;63.60
16313;DHT22;8265;52.622;13.296;2023-04-19T00:44:24;5.50;64.10
16313;DHT22;8265;52.622;13.296;2023-04-19T00:49:45;5.40;65.10
16313;DHT22;8265;52.622;13.296;2023-04-19T00:55:06;5.30;64.80
16313;DHT22;8265;52.622;13.296;2023-04-19T01:00:27;5.00;65.70
16313;DHT22;8265;52.622;13.296;2023-04-19T01:05:48;4.80;66.60
16313;DHT22;8265;52.622;13.296;2023-04-19T01:11:09;4.80;65.50
16313;DHT22;8265;52.622;13.296;2023-04-19T01:16:30;4.50;66.70
16313;DHT22;8265;52.622;13.296;2023-04-19T01:21:51;4.50;67.00
16313;DHT22;8265;52.622;13.296;2023-04-19T01:27:12;4.20;67.90
16313;DHT22;8265;52.622;13.296;2023-04-19T01:32:33;4.10;68.60
16313;DHT22;8265;52.622;13.296;2023-04-19T01:37:53;3.90;68.90
16313;DHT22;8265;52.622;13.296;2023-04-19T01:43:15;4.00;69.20
16313;DHT22;8265;52.622;13.296;2023-04-19T01:48:35;3.90;69.20
16313;DHT22;8265;52.622;13.296;2023-04-19T01:53:56;3.70;70.10
16313;DHT22;8265;52.622;13.296;2023-04-19T01:59:17;3.60;70.40
16313;DHT22;8265;52.622;13.296;2023-04-19T02:04:38;3.50;71.10
16313;DHT22;8265;52.622;13.296;2023-04-19T02:09:59;3.60;71.10
16313;DHT22;8265;52.622;13.296;2023-04-19T02:15:20;3.60;71.00
16313;DHT22;8265;52.622;13.296;2023-04-19T02:20:42;3.50;70.10
16313;DHT22;8265;52.622;13.296;2023-04-19T02:26:02;3.60;70.20
16313;DHT22;8265;52.622;13.296;2023-04-19T02:31:23;3.50;70.30
16313;DHT22;8265;52.622;13.296;2023-04-19T02:36:44;3.40;71.40
16313;DHT22;8265;52.622;13.296;2023-04-19T02:42:05;3.30;72.10
16313;DHT22;8265;52.622;13.296;2023-04-19T02:47:26;3.10;73.30
16313;DHT22;8265;52.622;13.296;2023-04-19T02:52:47;2.90;73.30
16313;DHT22;8265;52.622;13.296;2023-04-19T02:58:08;2.90;74.10
16313;DHT22;8265;52.622;13.296;2023-04-19T03:03:29;2.70;75.10
16313;DHT22;8265;52.622;13.296;2023-04-19T03:08:50;2.50;76.20
16313;DHT22;8265;52.622;13.296;2023-04-19T03:14:11;2.40;76.60
16313;DHT22;8265;52.622;13.296;2023-04-19T03:19:32;2.30;77.60
16313;DHT22;8265;52.622;13.296;2023-04-19T03:24:53;2.30;78.20
16313;DHT22;8265;52.622;13.296;2023-04-19T03:30:14;2.30;79.00
16313;DHT22;8265;52.622;13.296;2023-04-19T03:35:35;2.10;80.00
16313;DHT22;8265;52.622;13.296;2023-04-19T03:40:56;2.00;80.40
16313;DHT22;8265;52.622;13.296;2023-04-19T03:46:17;1.90;81.10
16313;DHT22;8265;52.622;13.296;2023-04-19T03:51:38;2.00;81.10
16313;DHT22;8265;52.622;13.296;2023-04-19T03:56:59;2.30;80.60
16313;DHT22;8265;52.622;13.296;2023-04-19T04:02:20;2.30;81.20
16313;DHT22;8265;52.622;13.296;2023-04-19T04:07:41;2.50;80.70
16313;DHT22;8265;52.622;13.296;2023-04-19T04:13:02;2.40;81.50
16313;DHT22;8265;52.622;13.296;2023-04-19T04:18:23;2.50;81.50
16313;DHT22;8265;52.622;13.296;2023-04-19T04:23:44;2.50;81.70
16313;DHT22;8265;52.622;13.296;2023-04-19T04:29:05;2.70;81.60
16313;DHT22;8265;52.622;13.296;2023-04-19T04:34:26;2.70;81.20
16313;DHT22;8265;52.622;13.296;2023-04-19T04:39:47;2.70;81.20
16313;DHT22;8265;52.622;13.296;2023-04-19T04:45:08;2.70;81.90
16313;DHT22;8265;52.622;13.296;2023-04-19T04:50:29;2.70;81.60
16313;DHT22;8265;52.622;13.296;2023-04-19T04:55:51;2.80;81.30
16313;DHT22;8265;52.622;13.296;2023-04-19T05:01:11;2.90;81.50
16313;DHT22;8265;52.622;13.296;2023-04-19T05:06:32;2.90;82.00
16313;DHT22;8265;52.622;13.296;2023-04-19T05:11:53;3.10;81.10
16313;DHT22;8265;52.622;13.296;2023-04-19T05:17:14;3.30;80.70
16313;DHT22;8265;52.622;13.296;2023-04-19T05:22:35;3.40;80.10
16313;DHT22;8265;52.622;13.296;2023-04-19T05:27:56;3.50;79.70
16313;DHT22;8265;52.622;13.296;2023-04-19T05:33:17;3.70;79.20
16313;DHT22;8265;52.622;13.296;2023-04-19T05:38:38;3.70;79.70
16313;DHT22;8265;52.622;13.296;2023-04-19T05:43:59;3.90;80.10
16313;DHT22;8265;52.622;13.296;2023-04-19T05:49:20;4.10;78.70
16313;DHT22;8265;52.622;13.296;2023-04-19T05:54:41;4.40;77.10
16313;DHT22;8265;52.622;13.296;2023-04-19T06:00:02;4.50;76.50
16313;DHT22;8265;52.622;13.296;2023-04-19T06:05:23;4.70;74.70
16313;DHT22;8265;52.622;13.296;2023-04-19T06:10:44;4.60;75.50
16313;DHT22;8265;52.622;13.296;2023-04-19T06:16:05;4.70;75.00
16313;DHT22;8265;52.622;13.296;2023-04-19T06:21:28;4.90;74.20
16313;DHT22;8265;52.622;13.296;2023-04-19T06:26:47;5.10;73.40
16313;DHT22;8265;52.622;13.296;2023-04-19T06:32:08;5.40;72.50
16313;DHT22;8265;52.622;13.296;2023-04-19T06:37:29;5.50;71.80
16313;DHT22;8265;52.622;13.296;2023-04-19T06:42:50;5.70;72.10
16313;DHT22;8265;52.622;13.296;2023-04-19T06:48:11;5.90;69.70
16313;DHT22;8265;52.622;13.296;2023-04-19T06:53:32;6.10;69.80
16313;DHT22;8265;52.622;13.296;2023-04-19T06:58:53;6.40;69.40
16313;DHT22;8265;52.622;13.296;2023-04-19T07:04:14;6.60;67.40
16313;DHT22;8265;52.622;13.296;2023-04-19T07:09:35;6.80;65.50
16313;DHT22;8265;52.622;13.296;2023-04-19T07:14:56;7.00;64.70
16313;DHT22;8265;52.622;13.296;2023-04-19T07:20:17;7.30;64.50
16313;DHT22;8265;52.622;13.296;2023-04-19T07:25:38;7.60;62.40
16313;DHT22;8265;52.622;13.296;2023-04-19T07:30:59;7.80;61.90
16313;DHT22;8265;52.622;13.296;2023-04-19T07:36:20;8.00;61.80
16313;DHT22;8265;52.622;13.296;2023-04-19T07:41:41;8.10;59.80
16313;DHT22;8265;52.622;13.296;2023-04-19T07:47:02;8.20;59.00
16313;DHT22;8265;52.622;13.296;2023-04-19T07:52:23;8.30;57.40
16313;DHT22;8265;52.622;13.296;2023-04-19T07:57:44;8.40;57.60
16313;DHT22;8265;52.622;13.296;2023-04-19T08:03:05;8.60;57.00
16313;DHT22;8265;52.622;13.296;2023-04-19T08:08:26;8.80;55.30
16313;DHT22;8265;52.622;13.296;2023-04-19T08:13:47;9.00;55.70
16313;DHT22;8265;52.622;13.296;2023-04-19T08:19:08;9.20;55.10
16313;DHT22;8265;52.622;13.296;2023-04-19T08:24:29;9.50;52.70
16313;DHT22;8265;52.622;13.296;2023-04-19T08:29:50;9.60;53.50
16313;DHT22;8265;52.622;13.296;2023-04-19T08:35:12;9.80;51.50
16313;DHT22;8265;52.622;13.296;2023-04-19T08:40:32;9.90;51.00
16313;DHT22;8265;52.622;13.296;2023-04-19T08:45:53;10.00;52.50
16313;DHT22;8265;52.622;13.296;2023-04-19T08:51:14;10.30;50.70
16313;DHT22;8265;52.622;13.296;2023-04-19T08:56:35;10.50;50.00
16313;DHT22;8265;52.622;13.296;2023-04-19T09:01:59;10.90;49.60
16313;DHT22;8265;52.622;13.296;2023-04-19T09:07:26;10.90;49.60
16313;DHT22;8265;52.622;13.296;2023-04-19T09:12:38;11.40;48.70
16313;DHT22;8265;52.622;13.296;2023-04-19T09:18:03;11.60;49.50
16313;DHT22;8265;52.622;13.296;2023-04-19T09:23:20;11.50;49.10
16313;DHT22;8265;52.622;13.296;2023-04-19T09:28:41;11.40;47.60
16313;DHT22;8265;52.622;13.296;2023-04-19T09:34:17;11.40;46.50
16313;DHT22;8265;52.622;13.296;2023-04-19T09:39:29;11.10;48.10
16313;DHT22;8265;52.622;13.296;2023-04-19T09:44:59;11.00;48.00
16313;DHT22;8265;52.622;13.296;2023-04-19T09:50:08;11.20;47.00
16313;DHT22;8265;52.622;13.296;2023-04-19T09:55:26;11.50;46.20
16313;DHT22;8265;52.622;13.296;2023-04-19T10:00:47;11.60;47.70
16313;DHT22;8265;52.622;13.296;2023-04-19T10:06:08;12.00;46.10
16313;DHT22;8265;52.622;13.296;2023-04-19T10:11:32;12.00;45.70
16313;DHT22;8265;52.622;13.296;2023-04-19T10:16:50;12.10;46.40
16313;DHT22;8265;52.622;13.296;2023-04-19T10:22:11;12.00;45.70
16313;DHT22;8265;52.622;13.296;2023-04-19T10:27:33;11.80;45.60
16313;DHT22;8265;52.622;13.296;2023-04-19T10:32:59;11.70;45.90
16313;DHT22;8265;52.622;13.296;2023-04-19T10:38:14;11.70;48.50
16313;DHT22;8265;52.622;13.296;2023-04-19T10:43:35;11.90;47.40
16313;DHT22;8265;52.622;13.296;2023-04-19T10:48:57;12.10;46.80
16313;DHT22;8265;52.622;13.296;2023-04-19T10:54:30;12.20;46.60
16313;DHT22;8265;52.622;13.296;2023-04-19T10:59:38;12.80;47.40
16313;DHT22;8265;52.622;13.296;2023-04-19T11:04:59;13.10;44.60
16313;DHT22;8265;52.622;13.296;2023-04-19T11:10:27;13.60;45.70
16313;DHT22;8265;52.622;13.296;2023-04-19T11:15:42;13.90;45.20
16313;DHT22;8265;52.622;13.296;2023-04-19T11:21:02;14.20;43.30
16313;DHT22;8265;52.622;13.296;2023-04-19T11:26:23;13.70;42.80
16313;DHT22;8265;52.622;13.296;2023-04-19T11:31:44;13.60;44.60
16313;DHT22;8265;52.622;13.296;2023-04-19T11:37:05;13.50;43.60
16313;DHT22;8265;52.622;13.296;2023-04-19T11:42:26;13.70;43.70
16313;DHT22;8265;52.622;13.296;2023-04-19T11:47:47;13.70;43.70
16313;DHT22;8265;52.622;13.296;2023-04-19T11:53:20;13.10;43.60
16313;DHT22;8265;52.622;13.296;2023-04-19T11:58:35;12.90;45.60
16313;DHT22;8265;52.622;13.296;2023-04-19T12:03:53;13.10;44.50
16313;DHT22;8265;52.622;13.296;2023-04-19T12:09:11;13.30;43.40
16313;DHT22;8265;52.622;13.296;2023-04-19T12:14:32;13.60;45.80
16313;DHT22;8265;52.622;13.296;2023-04-19T12:19:53;13.70;43.80
16313;DHT22;8265;52.622;13.296;2023-04-19T12:25:14;13.70;43.60
16313;DHT22;8265;52.622;13.296;2023-04-19T12:30:35;13.90;45.70
16313;DHT22;8265;52.622;13.296;2023-04-19T12:35:56;14.10;42.50
16313;DHT22;8265;52.622;13.296;2023-04-19T12:41:17;13.20;45.50
16313;DHT22;8265;52.622;13.296;2023-04-19T12:46:38;12.50;43.50
16313;DHT22;8265;52.622;13.296;2023-04-19T12:51:59;12.30;43.40
16313;DHT22;8265;52.622;13.296;2023-04-19T12:57:20;12.80;44.80
16313;DHT22;8265;52.622;13.296;2023-04-19T13:02:41;14.10;40.40
16313;DHT22;8265;52.622;13.296;2023-04-19T13:08:02;14.40;38.50
16313;DHT22;8265;52.622;13.296;2023-04-19T13:13:23;14.30;37.50
16313;DHT22;8265;52.622;13.296;2023-04-19T13:18:44;14.60;38.20
16313;DHT22;8265;52.622;13.296;2023-04-19T13:24:05;14.70;40.50
16313;DHT22;8265;52.622;13.296;2023-04-19T13:29:26;14.70;40.00
16313;DHT22;8265;52.622;13.296;2023-04-19T13:34:47;14.70;39.10
16313;DHT22;8265;52.622;13.296;2023-04-19T13:40:08;14.50;38.50
16313;DHT22;8265;52.622;13.296;2023-04-19T13:45:29;14.40;39.10
16313;DHT22;8265;52.622;13.296;2023-04-19T13:50:50;13.90;40.50
16313;DHT22;8265;52.622;13.296;2023-04-19T13:56:11;13.90;40.50
16313;DHT22;8265;52.622;13.296;2023-04-19T14:01:32;13.80;40.80
16313;DHT22;8265;52.622;13.296;2023-04-19T14:06:53;13.30;43.20
16313;DHT22;8265;52.622;13.296;2023-04-19T14:12:14;12.70;42.90
16313;DHT22;8265;52.622;13.296;2023-04-19T14:17:35;12.50;43.60
16313;DHT22;8265;52.622;13.296;2023-04-19T14:22:56;12.80;44.10
16313;DHT22;8265;52.622;13.296;2023-04-19T14:28:17;13.50;42.90
16313;DHT22;8265;52.622;13.296;2023-04-19T14:33:38;14.50;41.50
16313;DHT22;8265;52.622;13.296;2023-04-19T14:38:59;13.70;41.40
16313;DHT22;8265;52.622;13.296;2023-04-19T14:44:20;12.80;45.00
16313;DHT22;8265;52.622;13.296;2023-04-19T14:49:41;11.90;46.40
16313;DHT22;8265;52.622;13.296;2023-04-19T14:55:02;11.30;48.40
16313;DHT22;8265;52.622;13.296;2023-04-19T15:00:23;10.50;51.10
16313;DHT22;8265;52.622;13.296;2023-04-19T15:05:44;9.70;56.70
16313;DHT22;8265;52.622;13.296;2023-04-19T15:11:05;9.00;60.50
16313;DHT22;8265;52.622;13.296;2023-04-19T15:16:26;7.90;71.40
16313;DHT22;8265;52.622;13.296;2023-04-19T15:21:47;6.60;81.80
16313;DHT22;8265;52.622;13.296;2023-04-19T15:27:08;5.90;84.60
16313;DHT22;8265;52.622;13.296;2023-04-19T15:32:29;5.60;87.00
16313;DHT22;8265;52.622;13.296;2023-04-19T15:37:50;5.50;88.20
16313;DHT22;8265;52.622;13.296;2023-04-19T15:43:11;5.50;89.90
16313;DHT22;8265;52.622;13.296;2023-04-19T15:48:32;5.30;89.60
16313;DHT22;8265;52.622;13.296;2023-04-19T15:53:53;5.30;90.70
16313;DHT22;8265;52.622;13.296;2023-04-19T15:59:14;5.20;90.40
16313;DHT22;8265;52.622;13.296;2023-04-19T16:04:35;5.00;89.90
16313;DHT22;8265;52.622;13.296;2023-04-19T16:09:56;5.10;91.00
16313;DHT22;8265;52.622;13.296;2023-04-19T16:15:17;5.30;90.90
16313;DHT22;8265;52.622;13.296;2023-04-19T16:20:38;5.40;89.20
16313;DHT22;8265;52.622;13.296;2023-04-19T16:25:59;5.30;91.30
16313;DHT22;8265;52.622;13.296;2023-04-19T16:31:19;5.30;90.40
16313;DHT22;8265;52.622;13.296;2023-04-19T16:36:41;5.40;91.20
16313;DHT22;8265;52.622;13.296;2023-04-19T16:42:01;5.30;90.70
16313;DHT22;8265;52.622;13.296;2023-04-19T16:47:22;5.30;90.40
16313;DHT22;8265;52.622;13.296;2023-04-19T16:52:43;5.30;91.00
16313;DHT22;8265;52.622;13.296;2023-04-19T16:58:04;5.30;90.20
16313;DHT22;8265;52.622;13.296;2023-04-19T17:03:25;5.30;91.50
16313;DHT22;8265;52.622;13.296;2023-04-19T17:08:47;5.10;92.40
16313;DHT22;8265;52.622;13.296;2023-04-19T17:14:07;5.00;92.80
16313;DHT22;8265;52.622;13.296;2023-04-19T17:19:28;5.00;93.90
16313;DHT22;8265;52.622;13.296;2023-04-19T17:24:49;5.00;93.70
16313;DHT22;8265;52.622;13.296;2023-04-19T17:30:11;5.00;94.80
16313;DHT22;8265;52.622;13.296;2023-04-19T17:35:32;4.90;94.40
16313;DHT22;8265;52.622;13.296;2023-04-19T17:40:53;4.90;95.00
16313;DHT22;8265;52.622;13.296;2023-04-19T17:46:14;5.00;94.80
16313;DHT22;8265;52.622;13.296;2023-04-19T17:51:35;5.00;95.30
16313;DHT22;8265;52.622;13.296;2023-04-19T17:56:56;5.00;95.50
16313;DHT22;8265;52.622;13.296;2023-04-19T18:02:17;5.00;95.60
16313;DHT22;8265;52.622;13.296;2023-04-19T18:07:38;5.10;95.70
16313;DHT22;8265;52.622;13.296;2023-04-19T18:12:59;5.00;95.80
16313;DHT22;8265;52.622;13.296;2023-04-19T18:18:20;5.00;95.60
16313;DHT22;8265;52.622;13.296;2023-04-19T18:23:40;5.10;95.80
16313;DHT22;8265;52.622;13.296;2023-04-19T18:29:01;5.00;96.00
16313;DHT22;8265;52.622;13.296;2023-04-19T18:34:22;5.10;96.20
16313;DHT22;8265;52.622;13.296;2023-04-19T18:39:43;5.10;96.20
16313;DHT22;8265;52.622;13.296;2023-04-19T18:45:05;5.10;96.40
16313;DHT22;8265;52.622;13.296;2023-04-19T18:50:25;5.20;96.70
16313;DHT22;8265;52.622;13.296;2023-04-19T18:55:46;5.30;96.90
16313;DHT22;8265;52.622;13.296;2023-04-19T19:01:07;5.30;96.50
16313;DHT22;8265;52.622;13.296;2023-04-19T19:06:28;5.30;96.20
16313;DHT22;8265;52.622;13.296;2023-04-19T19:11:49;5.30;96.50
16313;DHT22;8265;52.622;13.296;2023-04-19T19:17:10;5.30;96.40
16313;DHT22;8265;52.622;13.296;2023-04-19T19:22:31;5.30;96.00
16313;DHT22;8265;52.622;13.296;2023-04-19T19:27:52;5.40;95.40
16313;DHT22;8265;52.622;13.296;2023-04-19T19:33:13;5.30;95.90
16313;DHT22;8265;52.622;13.296;2023-04-19T19:38:34;5.30;95.50
16313;DHT22;8265;52.622;13.296;2023-04-19T19:43:55;5.30;95.40
16313;DHT22;8265;52.622;13.296;2023-04-19T19:49:16;5.30;95.80
16313;DHT22;8265;52.622;13.296;2023-04-19T19:54:37;5.30;96.10
16313;DHT22;8265;52.622;13.296;2023-04-19T19:59:58;5.30;96.10
16313;DHT22;8265;52.622;13.296;2023-04-19T20:05:19;5.30;95.70
16313;DHT22;8265;52.622;13.296;2023-04-19T20:10:40;5.30;95.80
16313;DHT22;8265;52.622;13.296;2023-04-19T20:16:01;5.20;95.70
16313;DHT22;8265;52.622;13.296;2023-04-19T20:21:22;5.10;95.70
16313;DHT22;8265;52.622;13.296;2023-04-19T20:26:42;5.20;95.80
16313;DHT22;8265;52.622;13.296;2023-04-19T20:32:03;5.20;95.80
16313;DHT22;8265;52.622;13.296;2023-04-19T20:37:24;5.10;96.00
16313;DHT22;8265;52.622;13.296;2023-04-19T20:42:45;5.10;96.50
16313;DHT22;8265;52.622;13.296;2023-04-19T20:48:06;5.10;95.90
16313;DHT22;8265;52.622;13.296;2023-04-19T20:53:27;5.20;96.30
16313;DHT22;8265;52.622;13.296;2023-04-19T20:58:48;5.10;96.30
16313;DHT22;8265;52.622;13.296;2023-04-19T21:04:09;5.10;96.50
16313;DHT22;8265;52.622;13.296;2023-04-19T21:09:30;5.00;96.60
16313;DHT22;8265;52.622;13.296;2023-04-19T21:14:51;5.20;96.90
16313;DHT22;8265;52.622;13.296;2023-04-19T21:20:12;5.10;96.10
16313;DHT22;8265;52.622;13.296;2023-04-19T21:25:33;5.10;96.50
16313;DHT22;8265;52.622;13.296;2023-04-19T21:30:54;5.00;95.70
16313;DHT22;8265;52.622;13.296;2023-04-19T21:36:15;5.10;95.50
16313;DHT22;8265;52.622;13.296;2023-04-19T21:41:36;5.10;96.00
16313;DHT22;8265;52.622;13.296;2023-04-19T21:46:57;5.00;95.70
16313;DHT22;8265;52.622;13.296;2023-04-19T21:52:18;5.00;96.20
16313;DHT22;8265;52.622;13.296;2023-04-19T21:57:39;5.00;95.30
16313;DHT22;8265;52.622;13.296;2023-04-19T22:03:00;5.10;95.10
16313;DHT22;8265;52.622;13.296;2023-04-19T22:08:21;5.10;95.50
16313;DHT22;8265;52.622;13.296;2023-04-19T22:13:42;5.00;95.50
16313;DHT22;8265;52.622;13.296;2023-04-19T22:19:02;5.00;95.50
16313;DHT22;8265;52.622;13.296;2023-04-19T22:24:23;5.00;95.50
16313;DHT22;8265;52.622;13.296;2023-04-19T22:29:44;5.00;95.40
16313;DHT22;8265;52.622;13.296;2023-04-19T22:35:06;5.00;95.80
16313;DHT22;8265;52.622;13.296;2023-04-19T22:40:26;5.00;96.10
16313;DHT22;8265;52.622;13.296;2023-04-19T22:45:47;5.00;96.10
16313;DHT22;8265;52.622;13.296;2023-04-19T22:51:09;5.00;96.10
16313;DHT22;8265;52.622;13.296;2023-04-19T22:56:29;5.00;96.30
16313;DHT22;8265;52.622;13.296;2023-04-19T23:01:50;5.00;95.80
16313;DHT22;8265;52.622;13.296;2023-04-19T23:07:11;5.10;95.30
16313;DHT22;8265;52.622;13.296;2023-04-19T23:12:32;5.10;95.10
16313;DHT22;8265;52.622;13.296;2023-04-19T23:17:53;5.10;95.10
16313;DHT22;8265;52.622;13.296;2023-04-19T23:23:14;5.10;95.60
16313;DHT22;8265;52.622;13.296;2023-04-19T23:28:35;5.00;96.00
16313;DHT22;8265;52.622;13.296;2023-04-19T23:33:56;5.00;95.50
16313;DHT22;8265;52.622;13.296;2023-04-19T23:39:17;5.00;95.60
16313;DHT22;8265;52.622;13.296;2023-04-19T23:44:38;5.00;96.00
16313;DHT22;8265;52.622;13.296;2023-04-19T23:49:59;5.10;95.70
16313;DHT22;8265;52.622;13.296;2023-04-19T23:55:20;5.10;95.50
